THY6591 LKPR-LTFM
Flight info
| Callsign | THY6591 |
|---|---|
| Flight time | 2h 4m |
| Altitude | 35000 |
| Route | VOZ DCT LIKSA DCT PEPIK DCT ERGOM DCT TEGRI DCT XANEX L606 GASRU T390 RILEX |
| Aircraft | B77L/H-SDE1E2E3FGHIJ2J3J4J5M1RWXY/LB1D1 |
Departure
| Time | 2026-05-07 13:41 |
|---|---|
| Airport | Václav Havel Airport Prague (LKPR) |
Arrival
| Time | 2026-05-07 15:45 |
|---|---|
| Airport | İstanbul Airport (LTFM) |
| Time | Latitude | Longitude | Altitude | Speed | Heading |
|---|---|---|---|---|---|
| 2026-05-07 12:23 | 50.11339 | 14.27736 | 1179 ft | 0 kts | 123° |
| 2026-05-07 13:22 | 50.11341 | 14.27731 | 1179 ft | 3 kts | 124° |
| 2026-05-07 13:22 | 50.11352 | 14.27705 | 1173 ft | 3 kts | 124° |
| 2026-05-07 13:23 | 50.11361 | 14.27683 | 1173 ft | 3 kts | 126° |
| 2026-05-07 13:23 | 50.11373 | 14.27661 | 1173 ft | 3 kts | 147° |
| 2026-05-07 13:23 | 50.11386 | 14.27651 | 1173 ft | 3 kts | 182° |
| 2026-05-07 13:23 | 50.11396 | 14.27652 | 1173 ft | 3 kts | 225° |
| 2026-05-07 13:24 | 50.11405 | 14.27673 | 1174 ft | 3 kts | 245° |
| 2026-05-07 13:24 | 50.11414 | 14.27702 | 1174 ft | 3 kts | 245° |
| 2026-05-07 13:24 | 50.11423 | 14.27730 | 1173 ft | 3 kts | 245° |
| 2026-05-07 13:24 | 50.11430 | 14.27754 | 1173 ft | 0 kts | 245° |
| 2026-05-07 13:28 | 50.11428 | 14.27749 | 1173 ft | 2 kts | 245° |
| 2026-05-07 13:29 | 50.11418 | 14.27716 | 1173 ft | 5 kts | 244° |
| 2026-05-07 13:29 | 50.11400 | 14.27654 | 1174 ft | 8 kts | 244° |
| 2026-05-07 13:29 | 50.11377 | 14.27580 | 1173 ft | 8 kts | 245° |
| 2026-05-07 13:29 | 50.11354 | 14.27504 | 1174 ft | 8 kts | 245° |
| 2026-05-07 13:30 | 50.11327 | 14.27411 | 1174 ft | 11 kts | 245° |
| 2026-05-07 13:30 | 50.11295 | 14.27305 | 1174 ft | 11 kts | 245° |
| 2026-05-07 13:30 | 50.11263 | 14.27199 | 1176 ft | 11 kts | 245° |
| 2026-05-07 13:30 | 50.11231 | 14.27095 | 1174 ft | 11 kts | 245° |
| 2026-05-07 13:31 | 50.11199 | 14.26988 | 1173 ft | 12 kts | 245° |
| 2026-05-07 13:31 | 50.11165 | 14.26872 | 1173 ft | 12 kts | 245° |
| 2026-05-07 13:31 | 50.11131 | 14.26757 | 1172 ft | 12 kts | 245° |
| 2026-05-07 13:31 | 50.11097 | 14.26642 | 1174 ft | 12 kts | 244° |
| 2026-05-07 13:32 | 50.11071 | 14.26526 | 1174 ft | 11 kts | 266° |
| 2026-05-07 13:32 | 50.11078 | 14.26407 | 1174 ft | 11 kts | 277° |
| 2026-05-07 13:32 | 50.11071 | 14.26295 | 1167 ft | 11 kts | 237° |
| 2026-05-07 13:32 | 50.11011 | 14.26225 | 1170 ft | 11 kts | 213° |
| 2026-05-07 13:33 | 50.10949 | 14.26159 | 1172 ft | 11 kts | 214° |
| 2026-05-07 13:33 | 50.10883 | 14.26089 | 1172 ft | 13 kts | 214° |
| 2026-05-07 13:33 | 50.10803 | 14.26003 | 1173 ft | 15 kts | 214° |
| 2026-05-07 13:33 | 50.10719 | 14.25914 | 1175 ft | 15 kts | 214° |
| 2026-05-07 13:34 | 50.10646 | 14.25836 | 1175 ft | 9 kts | 214° |
| 2026-05-07 13:34 | 50.10542 | 14.25882 | 1175 ft | 12 kts | 123° |
| 2026-05-07 13:34 | 50.10488 | 14.26001 | 1175 ft | 15 kts | 127° |
| 2026-05-07 13:35 | 50.10419 | 14.26143 | 1176 ft | 18 kts | 127° |
| 2026-05-07 13:35 | 50.10343 | 14.26302 | 1175 ft | 18 kts | 127° |
| 2026-05-07 13:35 | 50.10266 | 14.26460 | 1180 ft | 18 kts | 127° |
| 2026-05-07 13:35 | 50.10189 | 14.26619 | 1177 ft | 18 kts | 127° |
| 2026-05-07 13:36 | 50.10113 | 14.26777 | 1187 ft | 18 kts | 127° |
| 2026-05-07 13:36 | 50.10036 | 14.26936 | 1197 ft | 18 kts | 127° |
| 2026-05-07 13:36 | 50.09960 | 14.27094 | 1203 ft | 18 kts | 127° |
| 2026-05-07 13:36 | 50.09884 | 14.27251 | 1206 ft | 18 kts | 127° |
| 2026-05-07 13:37 | 50.09798 | 14.27397 | 1208 ft | 18 kts | 135° |
| 2026-05-07 13:37 | 50.09708 | 14.27536 | 1210 ft | 18 kts | 135° |
| 2026-05-07 13:37 | 50.09617 | 14.27677 | 1214 ft | 18 kts | 136° |
| 2026-05-07 13:37 | 50.09527 | 14.27814 | 1217 ft | 18 kts | 135° |
| 2026-05-07 13:38 | 50.09439 | 14.27949 | 1220 ft | 18 kts | 135° |
| 2026-05-07 13:38 | 50.09352 | 14.28082 | 1219 ft | 17 kts | 135° |
| 2026-05-07 13:38 | 50.09276 | 14.28199 | 1218 ft | 15 kts | 135° |
| 2026-05-07 13:38 | 50.09218 | 14.28277 | 1216 ft | 10 kts | 153° |
| 2026-05-07 13:39 | 50.09150 | 14.28270 | 1215 ft | 10 kts | 210° |
| 2026-05-07 13:39 | 50.09098 | 14.28203 | 1215 ft | 9 kts | 220° |
| 2026-05-07 13:39 | 50.09077 | 14.28112 | 1212 ft | 10 kts | 285° |
| 2026-05-07 13:39 | 50.09156 | 14.27935 | 1215 ft | 35 kts | 307° |
| 2026-05-07 13:40 | 50.09447 | 14.27334 | 1213 ft | 104 kts | 307° |
| 2026-05-07 13:40 | 50.10009 | 14.26172 | 1198 ft | 162 kts | 306° |
| 2026-05-07 13:40 | 50.10793 | 14.24662 | 1383 ft | 183 kts | 314° |
| 2026-05-07 13:40 | 50.11626 | 14.23137 | 1833 ft | 187 kts | 301° |
| 2026-05-07 13:41 | 50.12309 | 14.21552 | 2862 ft | 167 kts | 302° |
| 2026-05-07 13:41 | 50.13003 | 14.20064 | 3556 ft | 174 kts | 302° |
| 2026-05-07 13:41 | 50.13715 | 14.18542 | 4224 ft | 175 kts | 302° |
| 2026-05-07 13:41 | 50.14458 | 14.16965 | 4670 ft | 190 kts | 302° |
| 2026-05-07 13:42 | 50.15298 | 14.15195 | 4894 ft | 217 kts | 303° |
| 2026-05-07 13:42 | 50.16266 | 14.13168 | 5081 ft | 247 kts | 304° |
| 2026-05-07 13:42 | 50.17313 | 14.10994 | 5832 ft | 252 kts | 304° |
| 2026-05-07 13:42 | 50.18157 | 14.08608 | 6521 ft | 254 kts | 280° |
| 2026-05-07 13:43 | 50.18240 | 14.07901 | 6705 ft | 254 kts | 273° |
| 2026-05-07 13:43 | 50.18258 | 14.07550 | 6804 ft | 254 kts | 269° |
| 2026-05-07 13:43 | 50.17910 | 14.04845 | 7529 ft | 259 kts | 244° |
| 2026-05-07 13:43 | 50.16846 | 14.02583 | 8355 ft | 262 kts | 222° |
| 2026-05-07 13:44 | 50.15376 | 14.00916 | 9199 ft | 263 kts | 214° |
| 2026-05-07 13:44 | 50.13873 | 13.99319 | 9977 ft | 266 kts | 215° |
| 2026-05-07 13:44 | 50.12175 | 13.97889 | 10396 ft | 284 kts | 199° |
| 2026-05-07 13:44 | 50.10141 | 13.97675 | 10550 ft | 317 kts | 170° |
| 2026-05-07 13:45 | 50.08025 | 13.99091 | 10784 ft | 346 kts | 152° |
| 2026-05-07 13:45 | 50.05913 | 14.01054 | 11332 ft | 359 kts | 152° |
| 2026-05-07 13:45 | 50.03718 | 14.02982 | 12149 ft | 365 kts | 154° |
| 2026-05-07 13:45 | 50.01449 | 14.04803 | 13139 ft | 368 kts | 156° |
| 2026-05-07 13:46 | 49.99133 | 14.06532 | 14082 ft | 370 kts | 158° |
| 2026-05-07 13:46 | 49.96779 | 14.08213 | 14917 ft | 375 kts | 158° |
| 2026-05-07 13:46 | 49.94382 | 14.09886 | 15704 ft | 380 kts | 158° |
| 2026-05-07 13:46 | 49.91954 | 14.11570 | 16510 ft | 384 kts | 158° |
| 2026-05-07 13:47 | 49.89492 | 14.13274 | 17294 ft | 390 kts | 158° |
| 2026-05-07 13:47 | 49.87014 | 14.15024 | 18043 ft | 392 kts | 155° |
| 2026-05-07 13:47 | 49.84776 | 14.17547 | 18573 ft | 407 kts | 135° |
| 2026-05-07 13:47 | 49.83054 | 14.21040 | 19202 ft | 410 kts | 129° |
| 2026-05-07 13:48 | 49.81360 | 14.24633 | 19863 ft | 415 kts | 129° |
| 2026-05-07 13:48 | 49.79633 | 14.28227 | 20580 ft | 418 kts | 130° |
| 2026-05-07 13:48 | 49.77882 | 14.31829 | 21260 ft | 421 kts | 130° |
| 2026-05-07 13:48 | 49.76105 | 14.35466 | 21932 ft | 425 kts | 130° |
| 2026-05-07 13:49 | 49.74305 | 14.39137 | 22590 ft | 429 kts | 130° |
| 2026-05-07 13:49 | 49.72497 | 14.42818 | 23236 ft | 433 kts | 130° |
| 2026-05-07 13:49 | 49.70663 | 14.46548 | 23832 ft | 437 kts | 131° |
| 2026-05-07 13:49 | 49.68818 | 14.50296 | 24371 ft | 440 kts | 131° |
| 2026-05-07 13:50 | 49.66979 | 14.54026 | 24925 ft | 443 kts | 131° |
| 2026-05-07 13:50 | 49.65198 | 14.57937 | 25482 ft | 448 kts | 128° |
| 2026-05-07 13:50 | 49.63506 | 14.62076 | 26023 ft | 452 kts | 126° |
| 2026-05-07 13:50 | 49.61880 | 14.66193 | 26531 ft | 456 kts | 126° |
| 2026-05-07 13:51 | 49.60221 | 14.70377 | 27038 ft | 459 kts | 127° |
| 2026-05-07 13:51 | 49.58534 | 14.74563 | 27548 ft | 462 kts | 127° |
| 2026-05-07 13:51 | 49.56812 | 14.78780 | 28065 ft | 465 kts | 128° |
| 2026-05-07 13:51 | 49.55078 | 14.82993 | 28562 ft | 467 kts | 128° |
| 2026-05-07 13:52 | 49.53329 | 14.87231 | 29073 ft | 470 kts | 128° |
| 2026-05-07 13:52 | 49.51678 | 14.91609 | 29528 ft | 476 kts | 124° |
| 2026-05-07 13:52 | 49.50162 | 14.96162 | 30018 ft | 479 kts | 122° |
| 2026-05-07 13:52 | 49.48712 | 15.00769 | 30503 ft | 478 kts | 122° |
| 2026-05-07 13:53 | 49.47271 | 15.05394 | 30981 ft | 478 kts | 122° |
| 2026-05-07 13:53 | 49.45823 | 15.09982 | 31426 ft | 477 kts | 122° |
| 2026-05-07 13:53 | 49.44372 | 15.14500 | 31827 ft | 477 kts | 122° |
| 2026-05-07 13:53 | 49.42887 | 15.19058 | 32259 ft | 477 kts | 122° |
| 2026-05-07 13:54 | 49.41393 | 15.23600 | 32694 ft | 476 kts | 122° |
| 2026-05-07 13:54 | 49.39894 | 15.28130 | 33144 ft | 476 kts | 122° |
| 2026-05-07 13:54 | 49.38394 | 15.32650 | 33585 ft | 475 kts | 122° |
| 2026-05-07 13:54 | 49.36891 | 15.37174 | 34000 ft | 474 kts | 122° |
| 2026-05-07 13:55 | 49.35391 | 15.41683 | 34339 ft | 474 kts | 122° |
| 2026-05-07 13:55 | 49.33892 | 15.46183 | 34639 ft | 475 kts | 122° |
| 2026-05-07 13:55 | 49.32386 | 15.50699 | 34872 ft | 477 kts | 122° |
| 2026-05-07 13:56 | 49.29338 | 15.59809 | 34929 ft | 480 kts | 122° |
| 2026-05-07 13:56 | 49.26312 | 15.68843 | 34939 ft | 473 kts | 122° |
| 2026-05-07 13:57 | 49.23304 | 15.77781 | 34941 ft | 472 kts | 123° |
| 2026-05-07 13:57 | 49.20312 | 15.86633 | 34950 ft | 471 kts | 123° |
| 2026-05-07 13:58 | 49.17300 | 15.95521 | 34963 ft | 471 kts | 123° |
| 2026-05-07 13:58 | 49.14272 | 16.04421 | 34967 ft | 472 kts | 123° |
| 2026-05-07 13:59 | 49.11228 | 16.13326 | 34962 ft | 473 kts | 123° |
| 2026-05-07 13:59 | 49.08175 | 16.22230 | 34963 ft | 474 kts | 123° |
| 2026-05-07 14:00 | 49.05118 | 16.31125 | 34954 ft | 473 kts | 123° |
| 2026-05-07 14:00 | 49.02060 | 16.39991 | 34954 ft | 472 kts | 124° |
| 2026-05-07 14:01 | 48.98998 | 16.48836 | 34937 ft | 471 kts | 124° |
| 2026-05-07 14:01 | 48.95940 | 16.57640 | 34933 ft | 470 kts | 124° |
| 2026-05-07 14:02 | 48.92884 | 16.66408 | 34927 ft | 469 kts | 124° |
| 2026-05-07 14:02 | 48.89842 | 16.75103 | 34925 ft | 468 kts | 124° |
| 2026-05-07 14:03 | 48.86783 | 16.83825 | 34930 ft | 468 kts | 124° |
| 2026-05-07 14:03 | 48.83717 | 16.92533 | 34923 ft | 467 kts | 124° |
| 2026-05-07 14:04 | 48.81144 | 16.99825 | 34928 ft | 468 kts | 124° |
| 2026-05-07 14:04 | 48.77904 | 17.08333 | 34936 ft | 463 kts | 131° |
| 2026-05-07 14:05 | 48.73889 | 17.15767 | 34939 ft | 457 kts | 138° |
| 2026-05-07 14:05 | 48.69674 | 17.22996 | 34943 ft | 459 kts | 138° |
| 2026-05-07 14:06 | 48.65456 | 17.30262 | 34941 ft | 460 kts | 137° |
| 2026-05-07 14:06 | 48.61241 | 17.37557 | 34947 ft | 460 kts | 137° |
| 2026-05-07 14:07 | 48.57035 | 17.44836 | 34952 ft | 460 kts | 137° |
| 2026-05-07 14:07 | 48.52821 | 17.52109 | 34959 ft | 459 kts | 138° |
| 2026-05-07 14:08 | 48.48611 | 17.59354 | 34955 ft | 459 kts | 138° |
| 2026-05-07 14:08 | 48.44390 | 17.66595 | 34954 ft | 459 kts | 138° |
| 2026-05-07 14:09 | 48.40178 | 17.73801 | 34954 ft | 458 kts | 138° |
| 2026-05-07 14:09 | 48.35983 | 17.80957 | 34957 ft | 458 kts | 139° |
| 2026-05-07 14:10 | 48.31757 | 17.88146 | 34961 ft | 459 kts | 139° |
| 2026-05-07 14:10 | 48.27520 | 17.95336 | 34973 ft | 460 kts | 139° |
| 2026-05-07 14:11 | 48.23265 | 18.02535 | 34968 ft | 461 kts | 139° |
| 2026-05-07 14:11 | 48.19001 | 18.09732 | 34965 ft | 462 kts | 139° |
| 2026-05-07 14:12 | 48.14727 | 18.16926 | 34964 ft | 462 kts | 139° |
| 2026-05-07 14:12 | 48.10471 | 18.24070 | 34966 ft | 463 kts | 139° |
| 2026-05-07 14:13 | 48.06184 | 18.31248 | 34971 ft | 463 kts | 139° |
| 2026-05-07 14:13 | 48.01886 | 18.38423 | 34972 ft | 463 kts | 139° |
| 2026-05-07 14:14 | 47.97581 | 18.45591 | 34990 ft | 464 kts | 139° |
| 2026-05-07 14:14 | 47.93247 | 18.52788 | 34973 ft | 465 kts | 139° |
| 2026-05-07 14:15 | 47.88917 | 18.59962 | 34991 ft | 467 kts | 139° |
| 2026-05-07 14:15 | 47.84559 | 18.67164 | 34958 ft | 467 kts | 139° |
| 2026-05-07 14:16 | 47.80214 | 18.74320 | 34973 ft | 464 kts | 139° |
| 2026-05-07 14:16 | 47.75842 | 18.81355 | 34974 ft | 462 kts | 139° |
| 2026-05-07 14:17 | 47.71485 | 18.88286 | 34977 ft | 461 kts | 139° |
| 2026-05-07 14:17 | 47.67098 | 18.95251 | 34986 ft | 462 kts | 139° |
| 2026-05-07 14:18 | 47.62704 | 19.02228 | 34996 ft | 463 kts | 139° |
| 2026-05-07 14:18 | 47.58298 | 19.09217 | 34994 ft | 465 kts | 139° |
| 2026-05-07 14:19 | 47.53882 | 19.16202 | 34993 ft | 466 kts | 139° |
| 2026-05-07 14:19 | 47.49473 | 19.23159 | 34986 ft | 466 kts | 139° |
| 2026-05-07 14:20 | 47.44991 | 19.30210 | 34990 ft | 467 kts | 139° |
| 2026-05-07 14:20 | 47.40569 | 19.37148 | 34992 ft | 468 kts | 139° |
| 2026-05-07 14:21 | 47.36104 | 19.44136 | 34991 ft | 468 kts | 139° |
| 2026-05-07 14:21 | 47.31637 | 19.51108 | 34987 ft | 468 kts | 139° |
| 2026-05-07 14:22 | 47.27162 | 19.58075 | 34989 ft | 468 kts | 139° |
| 2026-05-07 14:22 | 47.22675 | 19.65040 | 34993 ft | 467 kts | 139° |
| 2026-05-07 14:23 | 47.18206 | 19.71961 | 35002 ft | 467 kts | 139° |
| 2026-05-07 14:23 | 47.13718 | 19.78892 | 35011 ft | 467 kts | 139° |
| 2026-05-07 14:24 | 47.09239 | 19.85791 | 35010 ft | 468 kts | 139° |
| 2026-05-07 14:24 | 47.04730 | 19.92719 | 35013 ft | 468 kts | 139° |
| 2026-05-07 14:25 | 47.00260 | 19.99569 | 35012 ft | 468 kts | 139° |
| 2026-05-07 14:25 | 46.95748 | 20.06466 | 35019 ft | 469 kts | 139° |
| 2026-05-07 14:26 | 46.91233 | 20.13348 | 35020 ft | 469 kts | 139° |
| 2026-05-07 14:26 | 46.86704 | 20.20235 | 35018 ft | 469 kts | 139° |
| 2026-05-07 14:27 | 46.82171 | 20.27110 | 35018 ft | 469 kts | 139° |
| 2026-05-07 14:27 | 46.77630 | 20.33979 | 35018 ft | 470 kts | 139° |
| 2026-05-07 14:28 | 46.73088 | 20.40832 | 35006 ft | 470 kts | 139° |
| 2026-05-07 14:28 | 46.68545 | 20.47669 | 35013 ft | 469 kts | 139° |
| 2026-05-07 14:29 | 46.64028 | 20.54449 | 35013 ft | 469 kts | 139° |
| 2026-05-07 14:29 | 46.59490 | 20.61244 | 35009 ft | 468 kts | 139° |
| 2026-05-07 14:30 | 46.54943 | 20.68034 | 35005 ft | 467 kts | 139° |
| 2026-05-07 14:30 | 46.50412 | 20.74783 | 35017 ft | 467 kts | 139° |
| 2026-05-07 14:31 | 46.45762 | 20.81324 | 35017 ft | 464 kts | 142° |
| 2026-05-07 14:31 | 46.41007 | 20.87658 | 35013 ft | 464 kts | 142° |
| 2026-05-07 14:32 | 46.36289 | 20.93952 | 35024 ft | 464 kts | 142° |
| 2026-05-07 14:32 | 46.31556 | 21.00313 | 35022 ft | 464 kts | 142° |
| 2026-05-07 14:33 | 46.26834 | 21.06672 | 35034 ft | 464 kts | 142° |
| 2026-05-07 14:33 | 46.22097 | 21.13040 | 35045 ft | 465 kts | 142° |
| 2026-05-07 14:34 | 46.17351 | 21.19403 | 35038 ft | 466 kts | 142° |
| 2026-05-07 14:34 | 46.12588 | 21.25770 | 35049 ft | 467 kts | 142° |
| 2026-05-07 14:35 | 46.07821 | 21.32128 | 35042 ft | 467 kts | 142° |
| 2026-05-07 14:35 | 46.03040 | 21.38489 | 35043 ft | 468 kts | 142° |
| 2026-05-07 14:36 | 45.98282 | 21.44802 | 35015 ft | 468 kts | 142° |
| 2026-05-07 14:36 | 45.93483 | 21.51155 | 35014 ft | 469 kts | 142° |
| 2026-05-07 14:37 | 45.88674 | 21.57504 | 35015 ft | 469 kts | 142° |
| 2026-05-07 14:37 | 45.81446 | 21.67020 | 35007 ft | 470 kts | 142° |
| 2026-05-07 14:38 | 45.76623 | 21.73351 | 35014 ft | 470 kts | 142° |
| 2026-05-07 14:38 | 45.71795 | 21.79671 | 35008 ft | 470 kts | 142° |
| 2026-05-07 14:39 | 45.66968 | 21.85976 | 35007 ft | 470 kts | 142° |
| 2026-05-07 14:39 | 45.62138 | 21.92268 | 35029 ft | 470 kts | 142° |
| 2026-05-07 14:40 | 45.57310 | 21.98544 | 35027 ft | 470 kts | 142° |
| 2026-05-07 14:40 | 45.52505 | 22.04773 | 35028 ft | 469 kts | 142° |
| 2026-05-07 14:41 | 45.47679 | 22.11015 | 35028 ft | 469 kts | 142° |
| 2026-05-07 14:41 | 45.42850 | 22.17246 | 35027 ft | 468 kts | 142° |
| 2026-05-07 14:42 | 45.38028 | 22.23451 | 35029 ft | 467 kts | 142° |
| 2026-05-07 14:42 | 45.33212 | 22.29636 | 35038 ft | 466 kts | 143° |
| 2026-05-07 14:43 | 45.28390 | 22.35813 | 35036 ft | 466 kts | 143° |
| 2026-05-07 14:43 | 45.23573 | 22.41968 | 35043 ft | 466 kts | 143° |
| 2026-05-07 14:44 | 45.18751 | 22.48117 | 35045 ft | 466 kts | 143° |
| 2026-05-07 14:44 | 45.13928 | 22.54248 | 35042 ft | 466 kts | 143° |
| 2026-05-07 14:45 | 45.09097 | 22.60379 | 35044 ft | 466 kts | 142° |
| 2026-05-07 14:45 | 45.04262 | 22.66498 | 35038 ft | 466 kts | 142° |
| 2026-05-07 14:46 | 44.99462 | 22.72561 | 35046 ft | 466 kts | 143° |
| 2026-05-07 14:46 | 44.94614 | 22.78668 | 35038 ft | 467 kts | 143° |
| 2026-05-07 14:47 | 44.89757 | 22.84774 | 35040 ft | 467 kts | 142° |
| 2026-05-07 14:47 | 44.84893 | 22.90873 | 35044 ft | 467 kts | 142° |
| 2026-05-07 14:48 | 44.80033 | 22.96953 | 35041 ft | 468 kts | 142° |
| 2026-05-07 14:48 | 44.75159 | 23.03035 | 35043 ft | 468 kts | 142° |
| 2026-05-07 14:49 | 44.70278 | 23.09112 | 35035 ft | 469 kts | 142° |
| 2026-05-07 14:49 | 44.65387 | 23.15189 | 35030 ft | 469 kts | 142° |
| 2026-05-07 14:50 | 44.60495 | 23.21251 | 35033 ft | 469 kts | 142° |
| 2026-05-07 14:50 | 44.55622 | 23.27276 | 35032 ft | 470 kts | 142° |
| 2026-05-07 14:51 | 44.50712 | 23.33331 | 35032 ft | 471 kts | 142° |
| 2026-05-07 14:51 | 44.45781 | 23.39400 | 35034 ft | 472 kts | 142° |
| 2026-05-07 14:52 | 44.41671 | 23.44447 | 35032 ft | 474 kts | 142° |
| 2026-05-07 14:52 | 44.36703 | 23.50534 | 35040 ft | 475 kts | 142° |
| 2026-05-07 14:53 | 44.31722 | 23.56624 | 35039 ft | 477 kts | 142° |
| 2026-05-07 14:53 | 44.26721 | 23.62724 | 35042 ft | 478 kts | 142° |
| 2026-05-07 14:54 | 44.21704 | 23.68829 | 35044 ft | 478 kts | 142° |
| 2026-05-07 14:54 | 44.16682 | 23.74926 | 35042 ft | 479 kts | 142° |
| 2026-05-07 14:55 | 44.11692 | 23.80970 | 35045 ft | 479 kts | 142° |
| 2026-05-07 14:55 | 44.09170 | 23.84019 | 35151 ft | 482 kts | 142° |
| 2026-05-07 14:55 | 44.06642 | 23.87070 | 35516 ft | 481 kts | 142° |
| 2026-05-07 14:56 | 44.04119 | 23.90114 | 35936 ft | 478 kts | 142° |
| 2026-05-07 14:56 | 44.01605 | 23.93144 | 36042 ft | 479 kts | 142° |
| 2026-05-07 14:56 | 43.96575 | 23.99194 | 36023 ft | 476 kts | 142° |
| 2026-05-07 14:57 | 43.91577 | 24.05191 | 36041 ft | 475 kts | 142° |
| 2026-05-07 14:57 | 43.86564 | 24.11190 | 36043 ft | 476 kts | 142° |
| 2026-05-07 14:58 | 43.81545 | 24.17185 | 36039 ft | 477 kts | 142° |
| 2026-05-07 14:58 | 43.76543 | 24.23145 | 36040 ft | 477 kts | 142° |
| 2026-05-07 14:59 | 43.71505 | 24.29134 | 36038 ft | 477 kts | 142° |
| 2026-05-07 14:59 | 43.66460 | 24.35118 | 36038 ft | 478 kts | 142° |
| 2026-05-07 15:00 | 43.61414 | 24.41090 | 36043 ft | 478 kts | 142° |
| 2026-05-07 15:00 | 43.56362 | 24.47055 | 36042 ft | 478 kts | 142° |
| 2026-05-07 15:01 | 43.51301 | 24.53016 | 36039 ft | 478 kts | 142° |
| 2026-05-07 15:01 | 43.46263 | 24.58938 | 36042 ft | 479 kts | 142° |
| 2026-05-07 15:02 | 43.41161 | 24.64921 | 36045 ft | 479 kts | 142° |
| 2026-05-07 15:02 | 43.36113 | 24.70828 | 36043 ft | 480 kts | 142° |
| 2026-05-07 15:03 | 43.31023 | 24.76768 | 36046 ft | 481 kts | 142° |
| 2026-05-07 15:03 | 43.25918 | 24.82715 | 36045 ft | 481 kts | 142° |
| 2026-05-07 15:04 | 43.20802 | 24.88661 | 36048 ft | 482 kts | 142° |
| 2026-05-07 15:04 | 43.15679 | 24.94603 | 36045 ft | 483 kts | 142° |
| 2026-05-07 15:05 | 43.10616 | 25.00670 | 36043 ft | 485 kts | 139° |
| 2026-05-07 15:05 | 43.05722 | 25.07043 | 36056 ft | 486 kts | 139° |
| 2026-05-07 15:06 | 43.00840 | 25.13439 | 36043 ft | 486 kts | 139° |
| 2026-05-07 15:06 | 42.95968 | 25.19775 | 36056 ft | 487 kts | 139° |
| 2026-05-07 15:07 | 42.91042 | 25.26141 | 36040 ft | 488 kts | 139° |
| 2026-05-07 15:07 | 42.86111 | 25.32495 | 36051 ft | 488 kts | 139° |
| 2026-05-07 15:08 | 42.81173 | 25.38844 | 36039 ft | 488 kts | 139° |
| 2026-05-07 15:08 | 42.76231 | 25.45185 | 36046 ft | 488 kts | 139° |
| 2026-05-07 15:09 | 42.71286 | 25.51516 | 36047 ft | 488 kts | 139° |
| 2026-05-07 15:09 | 42.66329 | 25.57847 | 36043 ft | 489 kts | 139° |
| 2026-05-07 15:10 | 42.61373 | 25.64162 | 36035 ft | 488 kts | 139° |
| 2026-05-07 15:10 | 42.56453 | 25.70418 | 36042 ft | 487 kts | 139° |
| 2026-05-07 15:11 | 42.51510 | 25.76689 | 36046 ft | 486 kts | 139° |
| 2026-05-07 15:11 | 42.46565 | 25.82947 | 36041 ft | 486 kts | 139° |
| 2026-05-07 15:12 | 42.41613 | 25.89201 | 36041 ft | 486 kts | 139° |
| 2026-05-07 15:12 | 42.36662 | 25.95440 | 36043 ft | 487 kts | 139° |
| 2026-05-07 15:13 | 42.31706 | 26.01673 | 36043 ft | 487 kts | 139° |
| 2026-05-07 15:13 | 42.26824 | 26.08038 | 36044 ft | 490 kts | 133° |
| 2026-05-07 15:14 | 42.22729 | 26.15421 | 36050 ft | 493 kts | 122° |
| 2026-05-07 15:14 | 42.19437 | 26.23347 | 36033 ft | 470 kts | 120° |
| 2026-05-07 15:15 | 42.17899 | 26.27126 | 35988 ft | 458 kts | 120° |
| 2026-05-07 15:15 | 42.16365 | 26.30870 | 35742 ft | 452 kts | 120° |
| 2026-05-07 15:15 | 42.14816 | 26.34613 | 35471 ft | 453 kts | 120° |
| 2026-05-07 15:15 | 42.13256 | 26.38351 | 34811 ft | 464 kts | 121° |
| 2026-05-07 15:16 | 42.11670 | 26.42134 | 34094 ft | 477 kts | 121° |
| 2026-05-07 15:16 | 42.10025 | 26.46047 | 33580 ft | 482 kts | 121° |
| 2026-05-07 15:16 | 42.08372 | 26.49975 | 33163 ft | 484 kts | 120° |
| 2026-05-07 15:16 | 42.06711 | 26.53922 | 32762 ft | 485 kts | 120° |
| 2026-05-07 15:17 | 42.05049 | 26.57866 | 32466 ft | 484 kts | 120° |
| 2026-05-07 15:17 | 42.03388 | 26.61804 | 32235 ft | 481 kts | 120° |
| 2026-05-07 15:17 | 42.01833 | 26.65487 | 31969 ft | 478 kts | 120° |
| 2026-05-07 15:17 | 42.00196 | 26.69358 | 31497 ft | 474 kts | 120° |
| 2026-05-07 15:18 | 41.98573 | 26.73190 | 31058 ft | 470 kts | 120° |
| 2026-05-07 15:18 | 41.96960 | 26.76991 | 30613 ft | 465 kts | 120° |
| 2026-05-07 15:18 | 41.95318 | 26.80710 | 30180 ft | 461 kts | 121° |
| 2026-05-07 15:18 | 41.93643 | 26.84371 | 29686 ft | 457 kts | 122° |
| 2026-05-07 15:19 | 41.91983 | 26.87985 | 29193 ft | 453 kts | 121° |
| 2026-05-07 15:19 | 41.90348 | 26.91573 | 28753 ft | 448 kts | 121° |
| 2026-05-07 15:19 | 41.88734 | 26.95128 | 28313 ft | 443 kts | 121° |
| 2026-05-07 15:19 | 41.87155 | 26.98603 | 27884 ft | 440 kts | 121° |
| 2026-05-07 15:20 | 41.85566 | 27.02098 | 27466 ft | 439 kts | 121° |
| 2026-05-07 15:20 | 41.83958 | 27.05632 | 27038 ft | 439 kts | 121° |
| 2026-05-07 15:20 | 41.82386 | 27.09081 | 26646 ft | 438 kts | 121° |
| 2026-05-07 15:20 | 41.80804 | 27.12541 | 26186 ft | 434 kts | 122° |
| 2026-05-07 15:21 | 41.79149 | 27.15914 | 25783 ft | 431 kts | 124° |
| 2026-05-07 15:21 | 41.77441 | 27.19187 | 25375 ft | 427 kts | 125° |
| 2026-05-07 15:21 | 41.75731 | 27.22436 | 24973 ft | 424 kts | 125° |
| 2026-05-07 15:21 | 41.74052 | 27.25664 | 24563 ft | 422 kts | 124° |
| 2026-05-07 15:22 | 41.72392 | 27.28889 | 24159 ft | 420 kts | 124° |
| 2026-05-07 15:22 | 41.70720 | 27.32084 | 23746 ft | 416 kts | 129° |
| 2026-05-07 15:22 | 41.68596 | 27.34694 | 23278 ft | 414 kts | 148° |
| 2026-05-07 15:22 | 41.66003 | 27.36293 | 22863 ft | 408 kts | 166° |
| 2026-05-07 15:23 | 41.63256 | 27.37199 | 22474 ft | 405 kts | 168° |
| 2026-05-07 15:23 | 41.60513 | 27.38068 | 22075 ft | 404 kts | 168° |
| 2026-05-07 15:23 | 41.57830 | 27.38966 | 21681 ft | 401 kts | 167° |
| 2026-05-07 15:23 | 41.55138 | 27.39897 | 21295 ft | 398 kts | 167° |
| 2026-05-07 15:24 | 41.52476 | 27.40827 | 20907 ft | 394 kts | 167° |
| 2026-05-07 15:24 | 41.49832 | 27.41748 | 20522 ft | 390 kts | 167° |
| 2026-05-07 15:24 | 41.47295 | 27.42924 | 20117 ft | 386 kts | 151° |
| 2026-05-07 15:24 | 41.45209 | 27.45157 | 19761 ft | 387 kts | 130° |
| 2026-05-07 15:25 | 41.43805 | 27.48220 | 19395 ft | 388 kts | 110° |
| 2026-05-07 15:25 | 41.43188 | 27.51714 | 19017 ft | 387 kts | 93° |
| 2026-05-07 15:25 | 41.43370 | 27.55253 | 18620 ft | 381 kts | 75° |
| 2026-05-07 15:25 | 41.44074 | 27.58627 | 18252 ft | 376 kts | 72° |
| 2026-05-07 15:26 | 41.44781 | 27.61967 | 17823 ft | 373 kts | 73° |
| 2026-05-07 15:26 | 41.45455 | 27.65291 | 17439 ft | 369 kts | 74° |
| 2026-05-07 15:26 | 41.46101 | 27.68583 | 17066 ft | 365 kts | 75° |
| 2026-05-07 15:26 | 41.46387 | 27.71931 | 16334 ft | 369 kts | 97° |
| 2026-05-07 15:27 | 41.45554 | 27.75131 | 15899 ft | 367 kts | 122° |
| 2026-05-07 15:27 | 41.43960 | 27.77749 | 15504 ft | 361 kts | 134° |
| 2026-05-07 15:27 | 41.42199 | 27.80123 | 15093 ft | 359 kts | 136° |
| 2026-05-07 15:27 | 41.40427 | 27.82448 | 14695 ft | 356 kts | 136° |
| 2026-05-07 15:28 | 41.38680 | 27.84724 | 14319 ft | 354 kts | 136° |
| 2026-05-07 15:28 | 41.36925 | 27.87010 | 13934 ft | 352 kts | 136° |
| 2026-05-07 15:28 | 41.35187 | 27.89286 | 13509 ft | 349 kts | 136° |
| 2026-05-07 15:28 | 41.33464 | 27.91548 | 13102 ft | 347 kts | 136° |
| 2026-05-07 15:29 | 41.31757 | 27.93797 | 12696 ft | 343 kts | 136° |
| 2026-05-07 15:29 | 41.30060 | 27.96031 | 12297 ft | 342 kts | 136° |
| 2026-05-07 15:29 | 41.28376 | 27.98252 | 11878 ft | 339 kts | 136° |
| 2026-05-07 15:29 | 41.26721 | 28.00436 | 11492 ft | 327 kts | 136° |
| 2026-05-07 15:30 | 41.25158 | 28.02501 | 11117 ft | 306 kts | 136° |
| 2026-05-07 15:30 | 41.23665 | 28.04471 | 10818 ft | 300 kts | 136° |
| 2026-05-07 15:30 | 41.22202 | 28.06397 | 10499 ft | 299 kts | 136° |
| 2026-05-07 15:30 | 41.20732 | 28.08336 | 10174 ft | 297 kts | 136° |
| 2026-05-07 15:31 | 41.19281 | 28.10244 | 10065 ft | 287 kts | 136° |
| 2026-05-07 15:31 | 41.17882 | 28.12081 | 9998 ft | 279 kts | 136° |
| 2026-05-07 15:31 | 41.16505 | 28.13890 | 9951 ft | 279 kts | 136° |
| 2026-05-07 15:31 | 41.15124 | 28.15704 | 9683 ft | 280 kts | 136° |
| 2026-05-07 15:32 | 41.13740 | 28.17521 | 9285 ft | 280 kts | 136° |
| 2026-05-07 15:32 | 41.12352 | 28.19340 | 8851 ft | 281 kts | 136° |
| 2026-05-07 15:32 | 41.10958 | 28.21167 | 8444 ft | 282 kts | 136° |
| 2026-05-07 15:32 | 41.09566 | 28.22989 | 8059 ft | 281 kts | 136° |
| 2026-05-07 15:33 | 41.08175 | 28.24810 | 7708 ft | 279 kts | 136° |
| 2026-05-07 15:33 | 41.06813 | 28.26592 | 7411 ft | 278 kts | 137° |
| 2026-05-07 15:33 | 41.05419 | 28.28415 | 7059 ft | 277 kts | 137° |
| 2026-05-07 15:33 | 41.04070 | 28.30181 | 6693 ft | 275 kts | 137° |
| 2026-05-07 15:34 | 41.02713 | 28.31955 | 6338 ft | 274 kts | 137° |
| 2026-05-07 15:34 | 41.01358 | 28.33722 | 5959 ft | 273 kts | 137° |
| 2026-05-07 15:34 | 41.00009 | 28.35481 | 5579 ft | 272 kts | 137° |
| 2026-05-07 15:34 | 40.98677 | 28.37221 | 5250 ft | 267 kts | 135° |
| 2026-05-07 15:35 | 40.97720 | 28.39261 | 4927 ft | 260 kts | 106° |
| 2026-05-07 15:35 | 40.97533 | 28.41589 | 4716 ft | 252 kts | 89° |
| 2026-05-07 15:35 | 40.97546 | 28.43908 | 4492 ft | 251 kts | 90° |
| 2026-05-07 15:35 | 40.97547 | 28.46203 | 4278 ft | 250 kts | 90° |
| 2026-05-07 15:36 | 40.97546 | 28.48502 | 4061 ft | 249 kts | 90° |
| 2026-05-07 15:36 | 40.97413 | 28.50777 | 3824 ft | 247 kts | 101° |
| 2026-05-07 15:36 | 40.97048 | 28.52960 | 3619 ft | 245 kts | 104° |
| 2026-05-07 15:36 | 40.96663 | 28.55159 | 3407 ft | 245 kts | 103° |
| 2026-05-07 15:37 | 40.96293 | 28.57357 | 3187 ft | 244 kts | 103° |
| 2026-05-07 15:37 | 40.95943 | 28.59521 | 3061 ft | 237 kts | 99° |
| 2026-05-07 15:37 | 40.95865 | 28.61732 | 3019 ft | 242 kts | 88° |
| 2026-05-07 15:37 | 40.95916 | 28.63944 | 2996 ft | 238 kts | 88° |
| 2026-05-07 15:38 | 40.95975 | 28.66114 | 2981 ft | 233 kts | 82° |
| 2026-05-07 15:38 | 40.96512 | 28.68082 | 2996 ft | 229 kts | 50° |
| 2026-05-07 15:38 | 40.97678 | 28.69500 | 2997 ft | 230 kts | 29° |
| 2026-05-07 15:38 | 40.99066 | 28.70564 | 3021 ft | 232 kts | 23° |
| 2026-05-07 15:39 | 41.00573 | 28.71115 | 3002 ft | 220 kts | 0° |
| 2026-05-07 15:39 | 41.02088 | 28.71191 | 2989 ft | 216 kts | 357° |
| 2026-05-07 15:39 | 41.03588 | 28.71192 | 3010 ft | 215 kts | 355° |
| 2026-05-07 15:39 | 41.05088 | 28.71167 | 3002 ft | 216 kts | 355° |
| 2026-05-07 15:40 | 41.06085 | 28.71147 | 3001 ft | 216 kts | 355° |
| 2026-05-07 15:40 | 41.07596 | 28.71117 | 2997 ft | 217 kts | 355° |
| 2026-05-07 15:40 | 41.09103 | 28.71086 | 3031 ft | 216 kts | 355° |
| 2026-05-07 15:40 | 41.10585 | 28.71056 | 3005 ft | 209 kts | 355° |
| 2026-05-07 15:41 | 41.12419 | 28.71022 | 2956 ft | 192 kts | 355° |
| 2026-05-07 15:41 | 41.13318 | 28.71004 | 2903 ft | 193 kts | 355° |
| 2026-05-07 15:41 | 41.14660 | 28.70976 | 2631 ft | 195 kts | 356° |
| 2026-05-07 15:41 | 41.15982 | 28.70950 | 2411 ft | 183 kts | 356° |
| 2026-05-07 15:42 | 41.17218 | 28.70924 | 2126 ft | 171 kts | 356° |
| 2026-05-07 15:42 | 41.18382 | 28.70902 | 1927 ft | 166 kts | 357° |
| 2026-05-07 15:42 | 41.19546 | 28.70879 | 1716 ft | 168 kts | 358° |
| 2026-05-07 15:42 | 41.20712 | 28.70857 | 1465 ft | 167 kts | 358° |
| 2026-05-07 15:43 | 41.21842 | 28.70834 | 1254 ft | 157 kts | 358° |
| 2026-05-07 15:43 | 41.22907 | 28.70804 | 1026 ft | 148 kts | 358° |
| 2026-05-07 15:43 | 41.23934 | 28.70782 | 878 ft | 149 kts | 1° |
| 2026-05-07 15:43 | 41.24977 | 28.70768 | 696 ft | 149 kts | 1° |
| 2026-05-07 15:44 | 41.26007 | 28.70743 | 503 ft | 147 kts | 1° |
| 2026-05-07 15:44 | 41.27022 | 28.70719 | 355 ft | 144 kts | 2° |
| 2026-05-07 15:44 | 41.27944 | 28.70707 | 303 ft | 113 kts | 358° |
| 2026-05-07 15:44 | 41.28570 | 28.70697 | 274 ft | 69 kts | 358° |
| 2026-05-07 15:45 | 41.28880 | 28.70699 | 263 ft | 25 kts | 10° |
| 2026-05-07 15:45 | 41.29029 | 28.70777 | 266 ft | 19 kts | 29° |
| 2026-05-07 15:45 | 41.29127 | 28.70854 | 287 ft | 16 kts | 30° |
| 2026-05-07 15:45 | 41.29216 | 28.70928 | 300 ft | 11 kts | 40° |
| 2026-05-07 15:46 | 41.29241 | 28.71108 | 267 ft | 9 kts | 89° |
| 2026-05-07 15:46 | 41.29204 | 28.71164 | 262 ft | 8 kts | 173° |
| 2026-05-07 15:46 | 41.29143 | 28.71164 | 263 ft | 11 kts | 180° |
| 2026-05-07 15:47 | 41.29045 | 28.71166 | 267 ft | 15 kts | 179° |
| 2026-05-07 15:47 | 41.28944 | 28.71168 | 270 ft | 15 kts | 179° |
| 2026-05-07 15:47 | 41.28840 | 28.71171 | 274 ft | 15 kts | 179° |
| 2026-05-07 15:47 | 41.28741 | 28.71172 | 277 ft | 14 kts | 179° |
| 2026-05-07 15:48 | 41.28645 | 28.71174 | 281 ft | 13 kts | 179° |
| 2026-05-07 15:48 | 41.28561 | 28.71176 | 284 ft | 8 kts | 178° |
| 2026-05-07 15:48 | 41.28515 | 28.71203 | 284 ft | 8 kts | 122° |
| 2026-05-07 15:48 | 41.28512 | 28.71282 | 283 ft | 9 kts | 89° |
| 2026-05-07 15:49 | 41.28513 | 28.71392 | 273 ft | 15 kts | 89° |
| 2026-05-07 15:49 | 41.28515 | 28.71539 | 271 ft | 16 kts | 89° |
| 2026-05-07 15:49 | 41.28517 | 28.71686 | 271 ft | 16 kts | 89° |
| 2026-05-07 15:49 | 41.28518 | 28.71833 | 271 ft | 16 kts | 89° |
| 2026-05-07 15:50 | 41.28520 | 28.71974 | 270 ft | 11 kts | 89° |
| 2026-05-07 15:50 | 41.28521 | 28.72090 | 270 ft | 13 kts | 89° |
| 2026-05-07 15:50 | 41.28523 | 28.72202 | 273 ft | 9 kts | 89° |
| 2026-05-07 15:50 | 41.28490 | 28.72254 | 277 ft | 8 kts | 173° |
| 2026-05-07 15:51 | 41.28424 | 28.72255 | 279 ft | 13 kts | 179° |
| 2026-05-07 15:51 | 41.28309 | 28.72256 | 283 ft | 19 kts | 179° |
| 2026-05-07 15:51 | 41.28181 | 28.72260 | 294 ft | 19 kts | 179° |
| 2026-05-07 15:51 | 41.28049 | 28.72262 | 298 ft | 19 kts | 179° |
| 2026-05-07 15:52 | 41.27920 | 28.72264 | 301 ft | 19 kts | 179° |
| 2026-05-07 15:52 | 41.27789 | 28.72267 | 305 ft | 19 kts | 179° |
| 2026-05-07 15:52 | 41.27662 | 28.72269 | 305 ft | 17 kts | 179° |
| 2026-05-07 15:52 | 41.27560 | 28.72271 | 308 ft | 14 kts | 179° |
| 2026-05-07 15:53 | 41.27479 | 28.72273 | 310 ft | 7 kts | 179° |
| 2026-05-07 15:53 | 41.27445 | 28.72247 | 310 ft | 5 kts | 246° |
| 2026-05-07 15:53 | 41.27442 | 28.72190 | 306 ft | 7 kts | 269° |
| 2026-05-07 15:53 | 41.27442 | 28.72133 | 306 ft | 5 kts | 269° |
| 2026-05-07 15:54 | 41.27441 | 28.72105 | 307 ft | 2 kts | 269° |
| 2026-05-07 15:54 | 41.27441 | 28.72098 | 307 ft | 0 kts | 269° |